Terminal Aerodrome Forecast
Issued by NWS Knoxville/Tri Cities, TN

Home | Current Version | Previous Version | Text Only | Print | Product List | Glossary On
Versions: 1 2 3 4 5 6 7 8 9 10 11 12 13 14 15 16
000
FTUS44 KMRX 200520
TAFTYS
TAF
KTYS 200520Z 2006/2106 VRB03KT P6SM SCT100
     FM200800 00000KT 4SM BR SCT250
      TEMPO 2010/2013 2SM BR
     FM201400 30006KT P6SM SCT050 SCT150=

USA.gov is the U.S. government's official web portal to all federal, state and local government web resources and services.